Time;durP1;ratioP1;P1;durP2;ratioP2;P2;SDS_P1;SDS_P2;PMS_P1;PMS_P2;Temp;Humidity;BMP_temperature;BMP_pressure;BME280_temperature;BME280_humidity;BME280_pressure;Samples;Min_cycle;Max_cycle;Signal;HPM_P1;HPM_P2
2023/07/05 00:00:31;;;;;;;5.03;2.20;;;16.70;40.00;;;;;;4999833;28;46458;-78
2023/07/05 00:02:57;;;;;;;6.30;2.00;;;16.70;40.00;;;;;;4996002;28;46433;-80
2023/07/05 00:05:23;;;;;;;6.40;2.47;;;16.70;39.90;;;;;;4999510;28;46328;-80
2023/07/05 00:07:49;;;;;;;5.83;2.70;;;16.60;40.00;;;;;;4998011;28;46311;-78
2023/07/05 00:10:15;;;;;;;3.90;2.03;;;16.70;40.00;;;;;;5003933;28;46480;-78
2023/07/05 00:12:40;;;;;;;3.87;1.90;;;16.50;40.00;;;;;;5000957;28;47625;-83
2023/07/05 00:15:06;;;;;;;5.03;2.30;;;16.50;40.00;;;;;;5005135;28;46640;-80
2023/07/05 00:17:34;;;;;;;8.20;2.53;;;16.50;40.30;;;;;;5005003;28;45862;-81
2023/07/05 00:20:00;;;;;;;5.70;2.40;;;16.40;41.50;;;;;;5002481;28;46413;-78
2023/07/05 00:22:29;;;;;;;7.80;2.20;;;16.50;40.50;;;;;;4999541;28;46068;-80
2023/07/05 00:24:55;;;;;;;4.40;2.10;;;16.50;40.10;;;;;;5004712;28;46702;-80
2023/07/05 00:27:22;;;;;;;4.30;2.43;;;16.50;39.80;;;;;;5006361;28;45813;-79
2023/07/05 00:29:49;;;;;;;5.27;2.00;;;16.60;39.70;;;;;;4986870;28;46318;-79
2023/07/05 00:32:14;;;;;;;5.13;2.73;;;16.70;40.20;;;;;;5000191;28;46779;-79
2023/07/05 00:34:40;;;;;;;8.20;2.37;;;16.40;43.90;;;;;;4986531;28;46466;-80
2023/07/05 00:37:06;;;;;;;6.60;2.33;;;16.50;44.40;;;;;;5001217;28;46850;-79
2023/07/05 00:39:31;;;;;;;5.33;2.53;;;16.70;43.90;;;;;;5002436;28;46132;-81
2023/07/05 00:41:57;;;;;;;7.47;2.63;;;16.80;43.60;;;;;;5002246;28;47027;-80
2023/07/05 00:44:22;;;;;;;5.73;2.70;;;16.90;43.20;;;;;;5002778;28;46564;-80
2023/07/05 00:46:56;;;;;;;6.13;2.50;;;17.20;43.90;;;;;;5000292;28;46480;-81
2023/07/05 00:49:26;;;;;;;5.53;2.37;;;17.10;42.30;;;;;;5000436;28;46696;-82
2023/07/05 00:52:01;;;;;;;13.57;2.47;;;17.20;41.70;;;;;;5000635;28;46687;-80
2023/07/05 00:54:41;;;;;;;6.30;2.30;;;17.20;42.30;;;;;;4981498;28;46537;-79
2023/07/05 00:57:21;;;;;;;5.20;2.70;;;17.20;42.20;;;;;;5000210;28;46507;-79
2023/07/05 00:59:55;;;;;;;4.40;2.33;;;17.20;42.20;;;;;;5002462;28;46463;-78
2023/07/05 01:02:22;;;;;;;4.50;2.00;;;17.20;42.10;;;;;;5001040;28;47233;-80
2023/07/05 01:04:48;;;;;;;4.70;2.63;;;17.30;41.60;;;;;;5001374;28;46682;-80
2023/07/05 01:07:14;;;;;;;5.83;2.47;;;17.40;41.30;;;;;;5001980;28;46457;-80
2023/07/05 01:09:39;;;;;;;9.47;2.60;;;17.40;41.00;;;;;;5001610;28;46519;-81
2023/07/05 01:12:35;;;;;;;6.87;2.17;;;17.50;40.70;;;;;;5003158;28;46468;-81
2023/07/05 01:15:14;;;;;;;12.03;3.30;;;17.50;40.90;;;;;;5000966;28;47185;-80
2023/07/05 01:18:25;;;;;;;6.87;2.67;;;17.50;40.70;;;;;;5000252;28;46654;-79
2023/07/05 01:21:11;;;;;;;7.20;2.97;;;17.30;41.00;;;;;;4999926;28;47213;-80
2023/07/05 01:23:54;;;;;;;5.60;2.30;;;17.20;40.90;;;;;;4998629;28;47287;-81
2023/07/05 01:26:20;;;;;;;5.40;2.60;;;17.10;41.30;;;;;;5001006;28;46487;-80
2023/07/05 01:29:11;;;;;;;6.80;3.00;;;17.00;41.30;;;;;;4985028;28;45966;-81
2023/07/05 01:32:06;;;;;;;7.63;2.50;;;17.00;41.70;;;;;;4979015;28;46775;-78
2023/07/05 01:35:07;;;;;;;10.20;3.07;;;16.90;41.80;;;;;;4997799;28;46839;-79
2023/07/05 01:37:36;;;;;;;9.53;3.07;;;16.80;41.70;;;;;;4986012;28;46465;-80
2023/07/05 01:40:34;;;;;;;7.40;2.63;;;16.90;41.50;;;;;;5000047;28;47179;-80
2023/07/05 01:43:04;;;;;;;10.00;3.50;;;16.80;41.80;;;;;;4965522;28;47511;-79
2023/07/05 01:45:44;;;;;;;5.40;2.73;;;16.80;41.60;;;;;;4978914;28;47074;-80
2023/07/05 01:48:23;;;;;;;4.57;2.50;;;16.70;41.90;;;;;;5001949;28;46551;-79
2023/07/05 01:50:55;;;;;;;5.70;2.80;;;16.60;41.90;;;;;;5001352;28;46480;-81
2023/07/05 01:53:29;;;;;;;5.60;3.03;;;16.60;41.70;;;;;;4998034;28;47409;-80
2023/07/05 01:56:03;;;;;;;8.10;3.07;;;16.80;42.10;;;;;;4981145;28;48350;-80
2023/07/05 01:58:34;;;;;;;8.40;3.30;;;16.60;42.20;;;;;;5001576;28;46643;-81
2023/07/05 02:01:03;;;;;;;10.53;2.77;;;16.70;42.20;;;;;;5001956;28;46516;-80
2023/07/05 02:03:30;;;;;;;10.47;3.10;;;16.60;42.00;;;;;;4996732;28;46683;-81
2023/07/05 02:05:56;;;;;;;6.83;2.93;;;16.60;41.70;;;;;;4976698;28;48261;-81
2023/07/05 02:08:27;;;;;;;9.93;2.53;;;16.70;41.70;;;;;;4981825;28;46627;-80
2023/07/05 02:10:53;;;;;;;9.30;2.70;;;16.70;41.60;;;;;;4983771;28;46335;-80
2023/07/05 02:13:18;;;;;;;8.93;2.40;;;16.70;41.40;;;;;;4993997;28;46470;-78
2023/07/05 02:15:46;;;;;;;7.60;3.03;;;16.80;41.40;;;;;;4999335;28;46839;-78
2023/07/05 02:18:11;;;;;;;6.03;2.80;;;16.70;41.40;;;;;;4996075;28;46511;-78
2023/07/05 02:20:37;;;;;;;11.13;2.90;;;16.70;41.60;;;;;;5000202;28;46541;-78
2023/07/05 02:23:03;;;;;;;6.40;2.70;;;16.60;42.20;;;;;;4997209;28;46665;-79
2023/07/05 02:25:30;;;;;;;5.03;2.70;;;16.50;42.70;;;;;;4977887;28;48027;-79
2023/07/05 02:27:55;;;;;;;10.40;3.00;;;16.30;43.40;;;;;;4980763;28;46551;-77
2023/07/05 02:30:24;;;;;;;9.23;2.80;;;16.20;44.10;;;;;;4997703;28;46586;-78
2023/07/05 02:32:49;;;;;;;6.40;3.00;;;16.10;44.00;;;;;;4993530;28;46404;-77
2023/07/05 02:35:15;;;;;;;7.17;3.30;;;16.00;43.90;;;;;;4994078;28;46326;-78
2023/07/05 02:37:40;;;;;;;6.00;2.53;;;15.90;44.50;;;;;;4980626;28;47308;-78
2023/07/05 02:40:06;;;;;;;7.43;2.80;;;15.80;45.40;;;;;;4997874;28;46516;-79
2023/07/05 02:42:32;;;;;;;6.20;3.30;;;15.80;45.70;;;;;;4993503;28;46990;-79
2023/07/05 02:44:58;;;;;;;4.87;2.63;;;15.70;45.90;;;;;;4998252;28;47205;-77
2023/07/05 02:47:23;;;;;;;5.03;2.33;;;15.70;46.40;;;;;;4997166;28;46504;-81
2023/07/05 02:49:49;;;;;;;8.57;3.07;;;15.60;46.50;;;;;;4996641;28;46408;-79
2023/07/05 02:52:15;;;;;;;12.20;3.20;;;15.60;46.70;;;;;;4995672;28;46373;-79
2023/07/05 02:54:41;;;;;;;13.13;2.70;;;15.50;46.80;;;;;;4981451;28;48200;-79
2023/07/05 02:57:07;;;;;;;6.43;2.77;;;15.40;46.80;;;;;;4996558;28;46372;-79
2023/07/05 02:59:33;;;;;;;12.93;3.30;;;15.30;47.20;;;;;;4996728;28;46601;-81
2023/07/05 03:01:58;;;;;;;9.03;3.37;;;15.30;47.40;;;;;;4993529;28;46539;-78
2023/07/05 03:04:25;;;;;;;4.67;2.70;;;15.30;47.20;;;;;;4998125;28;47184;-80
2023/07/05 03:06:51;;;;;;;12.33;3.00;;;15.20;47.20;;;;;;4996910;28;46733;-79
2023/07/05 03:09:18;;;;;;;9.27;3.60;;;15.20;47.20;;;;;;4997464;28;46435;-79
2023/07/05 03:11:43;;;;;;;6.77;3.30;;;15.20;47.00;;;;;;4994438;28;46248;-81
2023/07/05 03:14:09;;;;;;;9.23;3.00;;;15.20;46.70;;;;;;4996743;28;46485;-80
2023/07/05 03:16:34;;;;;;;10.10;3.23;;;15.20;46.50;;;;;;4979406;28;46374;-80
2023/07/05 03:19:00;;;;;;;7.33;3.20;;;15.30;46.40;;;;;;4978176;28;46425;-79
2023/07/05 03:21:25;;;;;;;8.43;2.77;;;15.30;46.20;;;;;;4991700;28;46801;-80
2023/07/05 03:23:51;;;;;;;10.37;3.20;;;15.30;46.20;;;;;;4999635;28;46413;-82
2023/07/05 03:26:17;;;;;;;8.53;3.00;;;15.30;46.20;;;;;;4983973;28;46455;-80
2023/07/05 03:28:42;;;;;;;8.57;3.23;;;15.30;46.20;;;;;;4998344;28;46480;-79
2023/07/05 03:31:14;;;;;;;12.23;3.83;;;15.30;46.40;;;;;;4979612;28;46304;-80
2023/07/05 03:33:40;;;;;;;9.80;3.57;;;15.20;46.30;;;;;;4998710;28;46683;-80
2023/07/05 03:36:16;;;;;;;12.20;3.40;;;15.20;46.60;;;;;;4999796;28;46457;-80
2023/07/05 03:38:42;;;;;;;15.00;4.10;;;15.20;46.60;;;;;;5002454;28;45883;-80
2023/07/05 03:41:16;;;;;;;15.93;3.87;;;15.20;46.50;;;;;;4999127;28;46451;-79
2023/07/05 03:43:43;;;;;;;8.97;3.20;;;15.20;46.50;;;;;;4999897;28;46562;-80
2023/07/05 03:46:11;;;;;;;11.50;3.07;;;15.20;46.60;;;;;;5000860;28;46672;-80
2023/07/05 03:48:39;;;;;;;6.47;3.13;;;15.20;46.60;;;;;;4982807;28;46343;-79
2023/07/05 03:51:05;;;;;;;11.40;3.13;;;15.30;46.50;;;;;;4978717;28;46612;-78
2023/07/05 03:53:33;;;;;;;9.03;2.90;;;15.40;46.30;;;;;;4981971;28;48300;-81
2023/07/05 03:56:04;;;;;;;8.73;2.47;;;15.40;46.10;;;;;;5001573;28;46479;-81
2023/07/05 03:58:30;;;;;;;5.60;3.00;;;15.60;45.80;;;;;;5000346;28;46421;-80
2023/07/05 04:01:03;;;;;;;9.20;3.10;;;15.70;45.50;;;;;;4998982;28;46260;-79
2023/07/05 04:03:28;;;;;;;7.20;3.00;;;15.80;45.30;;;;;;5001216;28;46868;-80
2023/07/05 04:05:54;;;;;;;22.50;2.97;;;15.80;45.00;;;;;;4984212;28;46467;-80
2023/07/05 04:08:19;;;;;;;8.23;2.90;;;16.00;44.60;;;;;;4998601;28;46543;-78
2023/07/05 04:10:48;;;;;;;8.33;3.00;;;16.10;44.00;;;;;;4999193;28;46467;-81
2023/07/05 04:13:14;;;;;;;7.50;2.90;;;16.20;44.10;;;;;;4995844;28;47054;-80
2023/07/05 04:15:40;;;;;;;10.23;2.83;;;16.30;44.20;;;;;;4982201;28;45858;-81
2023/07/05 04:18:05;;;;;;;4.90;2.60;;;16.20;44.10;;;;;;4999597;28;46476;-82
2023/07/05 04:20:31;;;;;;;11.03;2.90;;;16.30;44.20;;;;;;4998096;28;46597;-80
2023/07/05 04:22:58;;;;;;;7.90;3.57;;;16.40;44.30;;;;;;4995675;28;46495;-80
2023/07/05 04:25:24;;;;;;;9.97;3.23;;;16.80;43.50;;;;;;5001016;28;46421;-80
2023/07/05 04:27:49;;;;;;;9.60;3.07;;;17.10;42.20;;;;;;4999521;28;46404;-80
2023/07/05 04:30:15;;;;;;;10.03;2.93;;;17.60;40.70;;;;;;4980937;28;46641;-80
2023/07/05 04:32:40;;;;;;;6.60;2.93;;;18.10;39.70;;;;;;4995184;28;46729;-80
2023/07/05 04:35:06;;;;;;;11.30;3.27;;;18.40;38.90;;;;;;4998561;28;46417;-80
2023/07/05 04:37:31;;;;;;;8.30;3.10;;;18.40;38.70;;;;;;4998039;28;46728;-80
2023/07/05 04:39:57;;;;;;;11.43;2.87;;;18.30;38.90;;;;;;4997662;28;46862;-81
2023/07/05 04:42:23;;;;;;;13.23;3.20;;;18.20;39.30;;;;;;4994555;28;46456;-79
2023/07/05 04:44:48;;;;;;;11.03;2.60;;;18.00;39.90;;;;;;4998525;28;46590;-80
2023/07/05 04:47:14;;;;;;;5.00;2.77;;;17.90;40.40;;;;;;4981475;28;46571;-80
2023/07/05 04:49:39;;;;;;;7.97;3.07;;;17.80;41.00;;;;;;4997437;28;46524;-81
2023/07/05 04:52:05;;;;;;;6.07;2.50;;;17.70;41.20;;;;;;4996718;28;46621;-80
2023/07/05 04:54:31;;;;;;;4.70;2.33;;;17.70;41.60;;;;;;5000043;28;45943;-80
2023/07/05 04:56:56;;;;;;;4.63;2.87;;;17.70;41.90;;;;;;5000315;28;46780;-81
2023/07/05 04:59:22;;;;;;;6.83;2.67;;;17.80;42.70;;;;;;4998287;28;45984;-80
2023/07/05 05:01:48;;;;;;;9.23;2.83;;;17.50;43.80;;;;;;4997253;28;49663;-81
2023/07/05 05:04:13;;;;;;;7.83;2.57;;;17.20;47.20;;;;;;4999993;28;46542;-80
2023/07/05 05:06:39;;;;;;;12.50;2.57;;;17.10;48.80;;;;;;4996527;28;45937;-81
2023/07/05 05:09:04;;;;;;;10.30;2.93;;;16.80;51.40;;;;;;4994660;28;46407;-80
2023/07/05 05:11:30;;;;;;;5.50;2.60;;;16.80;52.30;;;;;;4981606;28;48624;-80
2023/07/05 05:13:57;;;;;;;11.70;2.97;;;16.70;52.80;;;;;;4999463;28;46670;-81
2023/07/05 05:16:23;;;;;;;5.17;2.80;;;16.70;52.90;;;;;;4976222;28;46975;-77
2023/07/05 05:18:48;;;;;;;7.50;3.70;;;16.70;52.70;;;;;;4995735;28;45906;-81
2023/07/05 05:21:14;;;;;;;15.97;3.30;;;16.80;53.30;;;;;;4999386;28;46492;-80
2023/07/05 05:23:39;;;;;;;8.03;3.03;;;16.80;52.90;;;;;;4999843;28;46420;-81
2023/07/05 05:26:05;;;;;;;7.47;3.00;;;16.80;52.70;;;;;;4995661;28;46546;-79
2023/07/05 05:28:30;;;;;;;11.33;3.20;;;16.90;52.50;;;;;;4999630;28;47827;-79
2023/07/05 05:31:09;;;;;;;8.87;3.10;;;16.90;51.90;;;;;;4998370;28;46106;-80
2023/07/05 05:33:35;;;;;;;6.10;3.20;;;17.10;51.30;;;;;;4978557;28;46559;-82
2023/07/05 05:36:01;;;;;;;8.70;3.40;;;17.20;50.80;;;;;;4998503;28;46520;-80
2023/07/05 05:38:27;;;;;;;7.80;3.20;;;17.30;50.10;;;;;;4994963;28;46472;-81
2023/07/05 05:41:03;;;;;;;7.03;3.63;;;17.50;49.70;;;;;;5000339;28;46392;-81
2023/07/05 05:43:29;;;;;;;7.30;2.90;;;17.60;49.50;;;;;;5000918;28;46396;-81
2023/07/05 05:45:55;;;;;;;5.80;3.20;;;17.70;49.10;;;;;;5001817;28;46524;-82
2023/07/05 05:48:20;;;;;;;8.80;3.60;;;17.80;48.80;;;;;;4999707;28;46464;-82
2023/07/05 05:50:48;;;;;;;8.90;3.13;;;17.90;48.60;;;;;;5001730;28;46612;-82
2023/07/05 05:53:13;;;;;;;6.30;2.53;;;18.00;48.40;;;;;;5002751;28;46557;-84
2023/07/05 05:55:40;;;;;;;5.90;3.13;;;18.20;48.40;;;;;;4997831;28;47031;-83
2023/07/05 05:58:06;;;;;;;8.63;3.60;;;18.10;48.10;;;;;;5000602;28;46822;-84
2023/07/05 06:00:33;;;;;;;5.90;3.17;;;18.30;47.90;;;;;;4982381;28;49591;-84
2023/07/05 06:02:59;;;;;;;12.93;3.97;;;18.20;47.80;;;;;;4999557;28;46483;-82
2023/07/05 06:05:25;;;;;;;8.90;3.43;;;18.30;47.70;;;;;;4992516;28;46455;-79
2023/07/05 06:07:53;;;;;;;11.80;3.87;;;18.40;47.70;;;;;;4990938;28;47033;-83
2023/07/05 06:10:19;;;;;;;5.20;2.80;;;18.70;46.90;;;;;;4999400;28;47691;-81
2023/07/05 06:12:44;;;;;;;5.53;3.07;;;18.80;46.60;;;;;;4994804;28;46577;-82
2023/07/05 06:15:12;;;;;;;6.63;3.00;;;18.90;46.60;;;;;;4994582;28;46686;-82
2023/07/05 06:17:38;;;;;;;7.33;2.73;;;19.00;46.60;;;;;;4992533;28;46341;-83
2023/07/05 06:20:07;;;;;;;7.70;2.93;;;19.10;46.20;;;;;;4996292;28;46475;-84
2023/07/05 06:22:34;;;;;;;5.30;2.70;;;19.10;46.00;;;;;;4996349;28;46485;-82
2023/07/05 06:25:00;;;;;;;12.13;3.07;;;19.10;45.90;;;;;;4988969;28;46641;-82
2023/07/05 06:27:26;;;;;;;10.43;2.60;;;19.00;46.20;;;;;;4994632;28;46960;-80
2023/07/05 06:29:51;;;;;;;7.50;2.67;;;18.90;46.60;;;;;;4993233;28;46774;-81
2023/07/05 06:32:16;;;;;;;7.07;3.37;;;19.00;46.70;;;;;;4997283;28;47056;-81
2023/07/05 06:34:42;;;;;;;6.60;2.90;;;19.10;46.70;;;;;;4973807;28;46663;-81
2023/07/05 06:37:08;;;;;;;11.00;4.77;;;19.30;45.90;;;;;;4976940;28;46806;-82
2023/07/05 06:39:33;;;;;;;10.23;3.30;;;19.40;45.50;;;;;;4997150;28;47510;-81
2023/07/05 06:41:59;;;;;;;9.23;3.83;;;19.40;45.40;;;;;;4996234;28;46398;-81
2023/07/05 06:44:24;;;;;;;7.23;2.50;;;19.60;45.10;;;;;;4994945;28;46347;-82
2023/07/05 06:46:50;;;;;;;7.30;2.80;;;20.00;44.70;;;;;;4999257;28;46637;-82
2023/07/05 06:49:16;;;;;;;7.53;2.40;;;20.20;43.90;;;;;;4997704;28;46777;-81
2023/07/05 06:51:41;;;;;;;6.80;2.70;;;20.40;43.70;;;;;;4997342;28;46474;-81
2023/07/05 06:54:07;;;;;;;4.43;2.10;;;20.50;43.20;;;;;;4980253;28;46570;-82
2023/07/05 06:56:34;;;;;;;8.63;2.93;;;20.40;43.30;;;;;;4976114;28;46596;-82
2023/07/05 06:59:00;;;;;;;12.40;3.20;;;20.50;43.60;;;;;;4996462;28;46708;-80
2023/07/05 07:01:25;;;;;;;7.83;2.90;;;20.40;43.60;;;;;;5004432;28;46494;-78
2023/07/05 07:03:51;;;;;;;6.87;3.07;;;20.30;43.90;;;;;;5000334;28;46590;-78
2023/07/05 07:06:17;;;;;;;9.93;3.27;;;20.10;44.40;;;;;;4983785;28;46933;-79
2023/07/05 07:08:42;;;;;;;5.50;2.97;;;20.10;44.70;;;;;;5004976;28;46401;-79
2023/07/05 07:11:10;;;;;;;7.80;2.80;;;19.90;45.50;;;;;;5004897;28;46467;-81
2023/07/05 07:13:36;;;;;;;7.57;3.03;;;19.70;46.10;;;;;;5004752;28;45862;-81
2023/07/05 07:16:09;;;;;;;6.03;3.20;;;19.60;46.20;;;;;;5002240;28;46601;-79
2023/07/05 07:18:36;;;;;;;7.50;3.67;;;19.50;46.30;;;;;;5003109;28;49498;-82
2023/07/05 07:21:02;;;;;;;5.07;2.93;;;19.60;46.50;;;;;;4997552;28;46519;-82
2023/07/05 07:23:28;;;;;;;5.00;2.87;;;19.60;46.60;;;;;;5002050;28;46760;-80
2023/07/05 07:26:01;;;;;;;8.40;2.83;;;19.60;45.80;;;;;;4984856;28;46813;-82
2023/07/05 07:28:27;;;;;;;5.40;2.50;;;19.80;45.50;;;;;;4982164;28;49033;-82
2023/07/05 07:30:53;;;;;;;7.93;3.10;;;19.80;45.10;;;;;;4979679;28;45933;-81
2023/07/05 07:33:18;;;;;;;5.60;3.20;;;19.90;44.60;;;;;;5001282;28;46351;-83
2023/07/05 07:35:44;;;;;;;7.40;2.70;;;20.00;45.00;;;;;;5000811;28;46487;-84
2023/07/05 07:38:10;;;;;;;13.37;2.90;;;19.90;44.80;;;;;;4987293;28;47820;-82
2023/07/05 07:40:36;;;;;;;5.43;2.90;;;20.00;44.60;;;;;;4999491;28;46588;-82
2023/07/05 07:43:05;;;;;;;7.07;3.20;;;20.20;44.90;;;;;;5004064;28;46602;-83
2023/07/05 07:45:31;;;;;;;5.90;2.83;;;20.10;44.80;;;;;;4981625;28;46438;-81
2023/07/05 07:47:56;;;;;;;13.13;3.33;;;20.30;45.00;;;;;;5002062;28;46541;-82
2023/07/05 07:50:22;;;;;;;4.80;2.80;;;20.50;44.40;;;;;;5001148;28;46512;-79
2023/07/05 07:52:48;;;;;;;10.07;3.47;;;20.80;43.90;;;;;;5001639;28;46498;-82
2023/07/05 07:55:13;;;;;;;11.93;3.13;;;21.00;43.30;;;;;;4986331;28;46644;-82
2023/07/05 07:57:41;;;;;;;5.77;3.30;;;21.10;42.90;;;;;;4995777;28;47128;-83
2023/07/05 08:00:09;;;;;;;6.03;3.00;;;21.20;42.40;;;;;;5000605;28;46725;-83
2023/07/05 08:02:38;;;;;;;7.03;3.40;;;21.30;42.40;;;;;;4978909;28;46728;-82
2023/07/05 08:05:13;;;;;;;5.03;2.93;;;21.20;42.30;;;;;;5019846;28;46547;-81
2023/07/05 08:07:38;;;;;;;6.30;3.10;;;21.10;42.30;;;;;;5017733;28;46040;-79
2023/07/05 08:10:05;;;;;;;6.83;3.53;;;21.20;42.30;;;;;;5013635;28;46744;-84
2023/07/05 08:12:31;;;;;;;5.13;2.50;;;21.20;42.10;;;;;;4979520;28;46448;-82
2023/07/05 08:14:57;;;;;;;5.60;3.20;;;21.20;42.00;;;;;;4996999;28;47283;-83
2023/07/05 08:17:22;;;;;;;7.00;3.40;;;21.30;41.90;;;;;;5001416;28;46429;-82
2023/07/05 08:19:49;;;;;;;8.80;2.80;;;21.30;41.60;;;;;;4996380;28;46475;-82
2023/07/05 08:22:15;;;;;;;6.37;3.27;;;21.50;41.50;;;;;;4999559;28;47019;-81
2023/07/05 08:24:40;;;;;;;5.67;3.00;;;21.40;41.40;;;;;;4997852;28;46726;-82
2023/07/05 08:27:06;;;;;;;8.10;3.10;;;21.20;41.60;;;;;;4999763;28;46281;-79
2023/07/05 08:29:31;;;;;;;5.77;3.00;;;21.30;41.50;;;;;;4991125;28;46808;-80
2023/07/05 08:31:57;;;;;;;6.03;3.30;;;21.70;41.30;;;;;;4994184;28;46191;-82
2023/07/05 08:34:23;;;;;;;5.93;2.97;;;22.20;40.40;;;;;;5001051;28;46480;-79
2023/07/05 08:36:48;;;;;;;5.30;2.80;;;22.70;39.10;;;;;;4989079;28;46736;-79
2023/07/05 08:39:14;;;;;;;6.10;2.67;;;22.80;38.50;;;;;;4998592;28;46503;-81
2023/07/05 08:41:43;;;;;;;5.60;3.23;;;22.90;37.70;;;;;;4982290;28;46524;-80
2023/07/05 08:44:44;;;;;;;6.10;2.73;;;23.00;37.70;;;;;;4999389;28;46503;-79
2023/07/05 08:47:12;;;;;;;4.83;2.60;;;22.80;36.60;;;;;;4990947;28;47419;-78
2023/07/05 08:50:08;;;;;;;5.67;2.60;;;22.90;36.70;;;;;;4978665;28;45842;-82
2023/07/05 08:52:39;;;;;;;5.17;2.70;;;23.00;36.30;;;;;;4996062;28;47020;-80
2023/07/05 08:55:12;;;;;;;7.80;3.00;;;23.20;35.80;;;;;;4992634;28;46640;-83
2023/07/05 08:57:44;;;;;;;5.60;2.70;;;23.30;35.30;;;;;;4993919;28;47334;-78
2023/07/05 09:00:25;;;;;;;7.27;2.70;;;23.50;34.00;;;;;;4998321;28;47195;-79
2023/07/05 09:02:50;;;;;;;8.23;3.40;;;23.50;33.20;;;;;;4978638;28;46752;-78
2023/07/05 09:05:37;;;;;;;6.60;3.13;;;23.70;33.00;;;;;;4991424;28;47389;-80
2023/07/05 09:08:27;;;;;;;5.87;2.90;;;23.70;30.90;;;;;;4993621;28;46686;-80
2023/07/05 09:11:17;;;;;;;8.07;2.80;;;23.80;29.70;;;;;;4996998;28;46740;-80
2023/07/05 09:13:43;;;;;;;6.30;2.87;;;23.70;29.30;;;;;;4981415;28;47147;-81
2023/07/05 09:16:33;;;;;;;6.00;2.93;;;23.90;29.30;;;;;;4996649;28;46688;-79
2023/07/05 09:19:38;;;;;;;8.40;3.20;;;24.10;28.60;;;;;;4995414;28;46543;-77
2023/07/05 09:22:09;;;;;;;5.40;2.47;;;24.20;27.50;;;;;;4974930;28;46415;-80
2023/07/05 09:24:40;;;;;;;4.80;2.50;;;24.30;27.50;;;;;;4994342;28;46882;-81
2023/07/05 09:27:17;;;;;;;7.83;3.10;;;24.60;27.20;;;;;;4991004;28;46529;-80
2023/07/05 09:29:55;;;;;;;7.67;3.60;;;24.60;26.30;;;;;;4997937;28;46659;-79
2023/07/05 09:32:39;;;;;;;4.67;2.63;;;24.70;25.70;;;;;;4983046;28;46800;-80
2023/07/05 09:35:34;;;;;;;8.60;3.23;;;24.80;25.60;;;;;;4978868;28;46872;-79
2023/07/05 09:38:21;;;;;;;13.13;3.33;;;25.00;24.80;;;;;;4992881;28;46763;-80
2023/07/05 09:40:52;;;;;;;7.00;2.93;;;25.20;24.10;;;;;;4966856;28;48102;-82
2023/07/05 09:43:38;;;;;;;6.83;3.00;;;25.60;23.70;;;;;;4993802;28;46443;-79
2023/07/05 09:46:09;;;;;;;5.60;2.90;;;26.10;22.40;;;;;;4977044;28;46097;-80
2023/07/05 09:48:43;;;;;;;5.77;2.97;;;26.50;21.70;;;;;;4998963;28;45906;-80
2023/07/05 09:51:11;;;;;;;6.10;3.57;;;26.10;21.10;;;;;;4995878;28;46418;-80
2023/07/05 09:53:56;;;;;;;6.93;2.63;;;25.40;20.90;;;;;;4978673;28;46745;-81
2023/07/05 09:56:27;;;;;;;5.47;3.10;;;25.40;21.00;;;;;;4994901;28;46354;-77
2023/07/05 09:59:07;;;;;;;7.77;3.47;;;25.50;20.60;;;;;;4993705;28;46506;-80
2023/07/05 10:01:36;;;;;;;6.50;3.60;;;25.50;20.50;;;;;;4995449;28;46969;-80
2023/07/05 10:04:04;;;;;;;6.60;3.03;;;25.60;20.10;;;;;;4991799;28;45953;-83
2023/07/05 10:06:31;;;;;;;6.47;2.80;;;25.70;19.90;;;;;;4996012;28;46422;-82
2023/07/05 10:09:04;;;;;;;6.00;3.00;;;25.60;19.30;;;;;;4977156;28;46496;-79
2023/07/05 10:11:34;;;;;;;4.50;2.67;;;25.50;18.80;;;;;;4993567;28;47025;-79
2023/07/05 10:14:06;;;;;;;5.73;2.90;;;25.50;17.60;;;;;;4995709;28;46502;-83
2023/07/05 10:16:54;;;;;;;12.23;3.03;;;25.60;17.60;;;;;;4996977;28;46665;-81
2023/07/05 10:19:24;;;;;;;5.60;3.10;;;26.10;16.60;;;;;;4992400;28;46369;-80
2023/07/05 10:21:57;;;;;;;6.53;2.67;;;26.20;15.90;;;;;;4992065;28;46527;-79
2023/07/05 10:24:24;;;;;;;8.00;2.60;;;25.90;15.30;;;;;;4993288;28;46860;-81
2023/07/05 10:26:51;;;;;;;5.00;2.37;;;25.20;15.00;;;;;;4995383;28;46572;-82
2023/07/05 10:29:24;;;;;;;6.00;2.90;;;24.40;15.50;;;;;;4992490;28;46447;-76
2023/07/05 10:32:00;;;;;;;5.97;2.50;;;23.80;16.10;;;;;;4969555;28;48180;-80
2023/07/05 10:34:26;;;;;;;9.63;2.90;;;23.50;17.00;;;;;;4995883;28;46779;-79
2023/07/05 10:36:53;;;;;;;6.30;2.90;;;23.10;18.10;;;;;;4993255;28;46531;-81
2023/07/05 10:39:24;;;;;;;8.87;3.07;;;22.80;19.00;;;;;;4971324;28;46386;-81
2023/07/05 10:41:59;;;;;;;8.10;3.03;;;22.90;19.50;;;;;;4989375;28;47137;-81
2023/07/05 10:44:30;;;;;;;6.57;2.90;;;23.00;19.70;;;;;;4994810;28;46616;-79
2023/07/05 10:46:56;;;;;;;9.70;3.47;;;23.10;19.70;;;;;;4979389;28;46652;-82
2023/07/05 10:49:23;;;;;;;5.67;2.73;;;23.10;20.00;;;;;;4993666;28;46913;-82
2023/07/05 10:51:56;;;;;;;6.47;2.77;;;22.90;20.60;;;;;;4990385;28;47438;-80
2023/07/05 10:54:27;;;;;;;10.73;3.60;;;22.80;21.10;;;;;;4976570;28;46495;-80
2023/07/05 10:56:54;;;;;;;7.10;2.90;;;22.60;21.90;;;;;;4994094;28;46496;-81
2023/07/05 10:59:43;;;;;;;7.03;3.20;;;22.20;23.70;;;;;;4990036;28;46573;-79
2023/07/05 11:02:21;;;;;;;15.40;4.03;;;21.80;25.80;;;;;;4975477;28;48070;-82
2023/07/05 11:04:50;;;;;;;7.93;3.30;;;21.70;26.60;;;;;;4993675;28;46498;-83
2023/07/05 11:07:17;;;;;;;8.63;3.60;;;21.80;28.40;;;;;;4994110;28;46479;-81
2023/07/05 11:09:43;;;;;;;7.80;3.00;;;22.10;28.60;;;;;;4997104;28;46456;-81
2023/07/05 11:12:30;;;;;;;6.87;3.43;;;22.20;28.30;;;;;;4996591;28;47165;-79
2023/07/05 11:14:57;;;;;;;8.40;3.70;;;22.40;27.70;;;;;;4977239;28;46978;-80
2023/07/05 11:17:37;;;;;;;7.33;3.50;;;22.70;27.20;;;;;;4996603;28;46683;-79
2023/07/05 11:20:23;;;;;;;7.97;3.43;;;23.40;26.80;;;;;;4993325;28;46471;-83
2023/07/05 11:22:49;;;;;;;10.60;3.43;;;23.90;25.20;;;;;;4996391;28;49490;-78
2023/07/05 11:25:18;;;;;;;6.23;3.10;;;24.10;25.30;;;;;;4997601;28;46748;-83
2023/07/05 11:27:55;;;;;;;10.53;4.80;;;23.80;25.10;;;;;;4994379;28;46692;-79
2023/07/05 11:30:43;;;;;;;8.60;3.03;;;23.70;25.90;;;;;;4994666;28;46390;-80
2023/07/05 11:33:09;;;;;;;7.00;3.60;;;23.40;26.50;;;;;;4992691;28;47045;-79
2023/07/05 11:35:47;;;;;;;7.77;3.93;;;23.20;26.80;;;;;;4981283;28;46771;-77
2023/07/05 11:38:34;;;;;;;8.43;3.60;;;23.00;27.40;;;;;;4997446;28;46727;-79
2023/07/05 11:41:01;;;;;;;6.53;2.80;;;23.30;27.70;;;;;;4989450;28;46503;-79
2023/07/05 11:43:41;;;;;;;6.97;3.70;;;23.70;27.50;;;;;;4993556;28;52072;-81
2023/07/05 11:46:41;;;;;;;8.30;3.50;;;24.20;27.20;;;;;;4980274;28;46497;-81
2023/07/05 11:49:25;;;;;;;11.07;3.10;;;24.80;25.90;;;;;;4995247;28;46519;-80
2023/07/05 11:52:08;;;;;;;9.73;3.03;;;25.00;25.30;;;;;;4996593;28;45900;-78
2023/07/05 11:54:44;;;;;;;5.40;2.73;;;25.00;24.70;;;;;;4995403;28;47755;-77
2023/07/05 11:57:12;;;;;;;5.90;2.70;;;24.80;25.00;;;;;;4993015;28;46341;-81
2023/07/05 12:00:14;;;;;;;3.60;1.80;;;24.60;24.30;;;;;;4998097;28;46466;-80
2023/07/05 12:02:48;;;;;;;3.83;1.60;;;23.70;24.20;;;;;;4994692;28;46527;-78
2023/07/05 12:05:17;;;;;;;4.63;2.27;;;23.00;24.50;;;;;;4996139;28;46472;-80
2023/07/05 12:07:47;;;;;;;3.40;1.30;;;22.90;24.50;;;;;;4994016;28;46652;-80
2023/07/05 12:10:21;;;;;;;3.30;1.33;;;22.90;24.50;;;;;;4982394;28;46157;-80
2023/07/05 12:12:46;;;;;;;3.90;1.40;;;22.70;24.60;;;;;;4996843;28;45943;-79
2023/07/05 12:15:12;;;;;;;5.60;1.60;;;22.60;25.10;;;;;;4977394;28;47347;-80
2023/07/05 12:17:40;;;;;;;4.50;1.63;;;22.50;25.40;;;;;;4968265;28;46951;-83
2023/07/05 12:20:33;;;;;;;3.33;1.33;;;22.30;25.70;;;;;;4977057;28;46886;-77
2023/07/05 12:22:59;;;;;;;3.77;1.77;;;22.10;26.00;;;;;;4983734;28;46491;-82
2023/07/05 12:25:26;;;;;;;3.50;1.60;;;21.90;26.30;;;;;;4971907;28;46990;-82
2023/07/05 12:27:53;;;;;;;8.10;1.77;;;22.00;26.40;;;;;;4989444;28;46471;-81
2023/07/05 12:30:22;;;;;;;6.67;1.50;;;21.90;27.70;;;;;;4977623;28;46763;-80
2023/07/05 12:32:56;;;;;;;3.07;1.30;;;21.90;27.00;;;;;;4985675;28;46833;-79
2023/07/05 12:35:24;;;;;;;4.30;1.40;;;21.80;27.80;;;;;;4985267;28;47032;-78
2023/07/05 12:37:52;;;;;;;3.60;1.40;;;21.70;28.60;;;;;;4987513;28;46240;-79
2023/07/05 12:40:20;;;;;;;4.00;1.50;;;21.80;28.80;;;;;;4985705;28;45959;-80
2023/07/05 12:43:03;;;;;;;6.10;1.60;;;22.30;28.50;;;;;;4970451;28;46626;-79
2023/07/05 12:45:35;;;;;;;6.10;1.53;;;22.60;28.40;;;;;;4968074;28;48440;-79
2023/07/05 12:48:21;;;;;;;3.80;1.50;;;22.50;28.30;;;;;;4977546;28;46556;-77
2023/07/05 12:50:47;;;;;;;5.00;1.67;;;22.40;28.90;;;;;;4980847;28;46215;-77
2023/07/05 12:53:20;;;;;;;4.00;1.57;;;22.50;28.60;;;;;;4993775;28;45932;-78
2023/07/05 12:55:56;;;;;;;3.90;1.70;;;22.60;28.50;;;;;;4990747;28;46591;-79
2023/07/05 12:58:24;;;;;;;5.10;1.60;;;22.70;28.40;;;;;;4980198;28;46684;-77
2023/07/05 13:00:56;;;;;;;3.80;1.87;;;22.80;28.40;;;;;;4974647;28;46542;-79